sensor_id;sensor_type;location;lat;lon;timestamp;pressure;altitude;pressure_sealevel;temperature;humidity
58473;BME280;44775;51.564;5.460;2023-05-02T00:01:32;101702.00;;;11.94;100.00
58473;BME280;44775;51.564;5.460;2023-05-02T00:03:58;101701.50;;;12.17;100.00
58473;BME280;44775;51.564;5.460;2023-05-02T00:06:23;101701.50;;;12.17;100.00
58473;BME280;44775;51.564;5.460;2023-05-02T00:08:48;101701.81;;;12.14;100.00
58473;BME280;44775;51.564;5.460;2023-05-02T00:11:14;101716.22;;;12.13;100.00
58473;BME280;44775;51.564;5.460;2023-05-02T00:13:39;101715.16;;;12.05;100.00
58473;BME280;44775;51.564;5.460;2023-05-02T00:16:05;101717.31;;;12.02;100.00
58473;BME280;44775;51.564;5.460;2023-05-02T00:18:30;101723.00;;;11.99;100.00
58473;BME280;44775;51.564;5.460;2023-05-02T00:20:56;101723.94;;;12.16;100.00
58473;BME280;44775;51.564;5.460;2023-05-02T00:23:21;101729.81;;;11.93;100.00
58473;BME280;44775;51.564;5.460;2023-05-02T00:25:46;101745.56;;;11.96;100.00
58473;BME280;44775;51.564;5.460;2023-05-02T00:28:11;101729.09;;;11.91;100.00
58473;BME280;44775;51.564;5.460;2023-05-02T00:30:41;101732.47;;;11.93;100.00
58473;BME280;44775;51.564;5.460;2023-05-02T00:33:06;101728.88;;;12.02;100.00
58473;BME280;44775;51.564;5.460;2023-05-02T00:35:32;101735.59;;;12.07;100.00
58473;BME280;44775;51.564;5.460;2023-05-02T00:37:58;101745.03;;;11.93;100.00
58473;BME280;44775;51.564;5.460;2023-05-02T00:40:23;101734.16;;;11.94;100.00
58473;BME280;44775;51.564;5.460;2023-05-02T00:42:48;101748.41;;;11.95;100.00
58473;BME280;44775;51.564;5.460;2023-05-02T00:45:13;101738.06;;;12.00;100.00
58473;BME280;44775;51.564;5.460;2023-05-02T00:47:38;101735.84;;;11.95;100.00
58473;BME280;44775;51.564;5.460;2023-05-02T00:50:04;101742.56;;;11.99;100.00
58473;BME280;44775;51.564;5.460;2023-05-02T00:52:30;101744.03;;;11.94;100.00
58473;BME280;44775;51.564;5.460;2023-05-02T00:54:55;101755.09;;;11.81;100.00
58473;BME280;44775;51.564;5.460;2023-05-02T00:57:20;101755.66;;;11.67;100.00
58473;BME280;44775;51.564;5.460;2023-05-02T00:59:45;101738.81;;;11.74;100.00
58473;BME280;44775;51.564;5.460;2023-05-02T01:07:34;101737.28;;;11.54;100.00
58473;BME280;44775;51.564;5.460;2023-05-02T01:12:32;101747.78;;;11.47;100.00
58473;BME280;44775;51.564;5.460;2023-05-02T01:15:03;101743.56;;;11.80;99.26
58473;BME280;44775;51.564;5.460;2023-05-02T01:17:30;101750.22;;;11.76;99.24
58473;BME280;44775;51.564;5.460;2023-05-02T01:19:57;101752.91;;;11.94;98.40
58473;BME280;44775;51.564;5.460;2023-05-02T01:22:23;101749.16;;;11.87;98.28
58473;BME280;44775;51.564;5.460;2023-05-02T01:30:14;101746.94;;;11.47;100.00
58473;BME280;44775;51.564;5.460;2023-05-02T01:32:42;101744.78;;;11.50;100.00
58473;BME280;44775;51.564;5.460;2023-05-02T01:35:09;101742.75;;;11.44;100.00
58473;BME280;44775;51.564;5.460;2023-05-02T01:37:35;101753.22;;;11.38;100.00
58473;BME280;44775;51.564;5.460;2023-05-02T01:40:02;101750.53;;;11.38;100.00
58473;BME280;44775;51.564;5.460;2023-05-02T01:42:29;101754.19;;;11.19;100.00
58473;BME280;44775;51.564;5.460;2023-05-02T01:44:55;101757.44;;;11.13;100.00
58473;BME280;44775;51.564;5.460;2023-05-02T01:47:22;101761.59;;;11.25;100.00
58473;BME280;44775;51.564;5.460;2023-05-02T01:49:48;101756.84;;;11.19;100.00
58473;BME280;44775;51.564;5.460;2023-05-02T01:52:13;101759.66;;;11.45;100.00
58473;BME280;44775;51.564;5.460;2023-05-02T01:54:39;101764.53;;;11.31;100.00
58473;BME280;44775;51.564;5.460;2023-05-02T01:57:06;101772.44;;;11.23;100.00
58473;BME280;44775;51.564;5.460;2023-05-02T01:59:32;101769.47;;;11.26;100.00
58473;BME280;44775;51.564;5.460;2023-05-02T02:01:58;101772.59;;;11.22;100.00
58473;BME280;44775;51.564;5.460;2023-05-02T02:04:23;101778.75;;;11.32;100.00
58473;BME280;44775;51.564;5.460;2023-05-02T02:06:51;101782.25;;;11.50;100.00
58473;BME280;44775;51.564;5.460;2023-05-02T02:09:18;101786.88;;;11.58;100.00
58473;BME280;44775;51.564;5.460;2023-05-02T02:11:55;101776.78;;;11.34;100.00
58473;BME280;44775;51.564;5.460;2023-05-02T02:14:24;101789.44;;;11.32;100.00
58473;BME280;44775;51.564;5.460;2023-05-02T02:16:52;101795.63;;;11.32;100.00
58473;BME280;44775;51.564;5.460;2023-05-02T02:19:19;101783.38;;;11.30;100.00
58473;BME280;44775;51.564;5.460;2023-05-02T02:21:45;101786.91;;;11.30;100.00
58473;BME280;44775;51.564;5.460;2023-05-02T02:24:11;101789.75;;;11.29;100.00
58473;BME280;44775;51.564;5.460;2023-05-02T02:26:37;101792.22;;;11.13;100.00
58473;BME280;44775;51.564;5.460;2023-05-02T02:29:03;101794.19;;;11.38;100.00
58473;BME280;44775;51.564;5.460;2023-05-02T02:31:32;101798.25;;;11.42;100.00
58473;BME280;44775;51.564;5.460;2023-05-02T02:33:57;101800.44;;;11.29;100.00
58473;BME280;44775;51.564;5.460;2023-05-02T02:36:23;101800.06;;;11.24;100.00
58473;BME280;44775;51.564;5.460;2023-05-02T02:38:53;101799.41;;;11.12;100.00
58473;BME280;44775;51.564;5.460;2023-05-02T02:41:26;101794.81;;;11.04;100.00
58473;BME280;44775;51.564;5.460;2023-05-02T02:51:38;101800.53;;;11.09;100.00
58473;BME280;44775;51.564;5.460;2023-05-02T02:56:40;101810.94;;;11.40;100.00
58473;BME280;44775;51.564;5.460;2023-05-02T02:59:11;101808.13;;;11.42;100.00
58473;BME280;44775;51.564;5.460;2023-05-02T03:01:39;101816.19;;;11.32;100.00
58473;BME280;44775;51.564;5.460;2023-05-02T03:04:06;101817.78;;;11.25;100.00
58473;BME280;44775;51.564;5.460;2023-05-02T03:06:32;101823.72;;;11.19;100.00
58473;BME280;44775;51.564;5.460;2023-05-02T03:08:58;101829.28;;;11.07;100.00
58473;BME280;44775;51.564;5.460;2023-05-02T03:11:23;101825.63;;;11.08;100.00
58473;BME280;44775;51.564;5.460;2023-05-02T03:13:48;101831.44;;;11.04;100.00
58473;BME280;44775;51.564;5.460;2023-05-02T03:18:57;101834.66;;;11.07;100.00
58473;BME280;44775;51.564;5.460;2023-05-02T03:21:22;101836.78;;;11.04;100.00
58473;BME280;44775;51.564;5.460;2023-05-02T03:23:47;101838.31;;;10.97;100.00
58473;BME280;44775;51.564;5.460;2023-05-02T03:26:12;101847.06;;;10.99;100.00
58473;BME280;44775;51.564;5.460;2023-05-02T03:28:38;101837.69;;;10.85;100.00
58473;BME280;44775;51.564;5.460;2023-05-02T03:31:03;101843.84;;;10.95;100.00
58473;BME280;44775;51.564;5.460;2023-05-02T03:33:28;101846.78;;;10.92;100.00
58473;BME280;44775;51.564;5.460;2023-05-02T03:35:53;101846.94;;;11.00;100.00
58473;BME280;44775;51.564;5.460;2023-05-02T03:38:18;101855.41;;;10.86;100.00
58473;BME280;44775;51.564;5.460;2023-05-02T03:40:43;101855.69;;;10.83;100.00
58473;BME280;44775;51.564;5.460;2023-05-02T03:43:09;101857.84;;;10.70;100.00
58473;BME280;44775;51.564;5.460;2023-05-02T03:45:35;101856.88;;;10.71;100.00
58473;BME280;44775;51.564;5.460;2023-05-02T03:48:00;101851.34;;;10.82;100.00
58473;BME280;44775;51.564;5.460;2023-05-02T03:50:26;101847.06;;;10.99;100.00
58473;BME280;44775;51.564;5.460;2023-05-02T03:52:51;101860.78;;;10.76;100.00
58473;BME280;44775;51.564;5.460;2023-05-02T03:55:16;101862.28;;;10.88;100.00
58473;BME280;44775;51.564;5.460;2023-05-02T03:57:42;101866.66;;;10.80;100.00
58473;BME280;44775;51.564;5.460;2023-05-02T04:00:07;101869.50;;;10.78;100.00
58473;BME280;44775;51.564;5.460;2023-05-02T04:02:33;101882.72;;;10.80;100.00
58473;BME280;44775;51.564;5.460;2023-05-02T04:04:58;101880.16;;;10.88;100.00
58473;BME280;44775;51.564;5.460;2023-05-02T04:07:24;101892.53;;;10.89;100.00
58473;BME280;44775;51.564;5.460;2023-05-02T04:09:50;101893.56;;;11.25;100.00
58473;BME280;44775;51.564;5.460;2023-05-02T04:12:15;101894.91;;;11.39;100.00
58473;BME280;44775;51.564;5.460;2023-05-02T04:14:41;101899.38;;;11.48;100.00
58473;BME280;44775;51.564;5.460;2023-05-02T04:17:06;101896.78;;;11.56;100.00
58473;BME280;44775;51.564;5.460;2023-05-02T04:19:31;101896.88;;;11.65;99.95
58473;BME280;44775;51.564;5.460;2023-05-02T04:21:57;101909.97;;;11.68;98.98
58473;BME280;44775;51.564;5.460;2023-05-02T04:24:23;101907.91;;;11.62;97.53
58473;BME280;44775;51.564;5.460;2023-05-02T04:26:48;101920.38;;;11.43;97.97
58473;BME280;44775;51.564;5.460;2023-05-02T04:29:13;101920.81;;;11.39;97.28
58473;BME280;44775;51.564;5.460;2023-05-02T04:31:39;101919.84;;;11.30;96.21
58473;BME280;44775;51.564;5.460;2023-05-02T04:34:05;101928.06;;;11.56;93.83
58473;BME280;44775;51.564;5.460;2023-05-02T04:36:30;101931.41;;;11.30;94.65
58473;BME280;44775;51.564;5.460;2023-05-02T04:38:55;101944.13;;;11.19;93.82
58473;BME280;44775;51.564;5.460;2023-05-02T04:41:20;101951.06;;;11.02;95.00
58473;BME280;44775;51.564;5.460;2023-05-02T04:43:46;101953.03;;;11.09;95.18
58473;BME280;44775;51.564;5.460;2023-05-02T04:46:11;101955.44;;;11.03;93.18
58473;BME280;44775;51.564;5.460;2023-05-02T04:48:36;101959.84;;;10.84;92.53
58473;BME280;44775;51.564;5.460;2023-05-02T04:51:05;101964.22;;;10.66;93.02
58473;BME280;44775;51.564;5.460;2023-05-02T04:53:31;101960.56;;;10.38;94.22
58473;BME280;44775;51.564;5.460;2023-05-02T04:55:56;101971.53;;;10.35;93.61
58473;BME280;44775;51.564;5.460;2023-05-02T04:58:21;101974.13;;;10.15;94.70
58473;BME280;44775;51.564;5.460;2023-05-02T05:00:46;101978.78;;;10.04;96.10
58473;BME280;44775;51.564;5.460;2023-05-02T05:03:11;101977.50;;;10.08;96.61
58473;BME280;44775;51.564;5.460;2023-05-02T05:05:37;101981.84;;;10.09;96.10
58473;BME280;44775;51.564;5.460;2023-05-02T05:08:02;101983.44;;;10.21;94.75
58473;BME280;44775;51.564;5.460;2023-05-02T05:10:27;101987.66;;;10.24;95.82
58473;BME280;44775;51.564;5.460;2023-05-02T05:12:52;101989.97;;;10.38;94.14
58473;BME280;44775;51.564;5.460;2023-05-02T05:15:17;101987.84;;;10.32;94.39
58473;BME280;44775;51.564;5.460;2023-05-02T05:17:46;102001.75;;;10.26;94.64
58473;BME280;44775;51.564;5.460;2023-05-02T05:20:11;101995.22;;;10.18;96.10
58473;BME280;44775;51.564;5.460;2023-05-02T05:22:39;102005.84;;;10.30;93.54
58473;BME280;44775;51.564;5.460;2023-05-02T05:25:05;102011.25;;;10.18;93.78
58473;BME280;44775;51.564;5.460;2023-05-02T05:27:32;102009.09;;;10.43;93.00
58473;BME280;44775;51.564;5.460;2023-05-02T05:29:57;102011.22;;;10.39;93.16
58473;BME280;44775;51.564;5.460;2023-05-02T05:32:22;102015.00;;;10.37;93.15
58473;BME280;44775;51.564;5.460;2023-05-02T05:34:51;102018.50;;;10.37;92.15
58473;BME280;44775;51.564;5.460;2023-05-02T05:37:17;102015.13;;;10.45;92.64
58473;BME280;44775;51.564;5.460;2023-05-02T05:39:42;102018.66;;;10.75;89.84
58473;BME280;44775;51.564;5.460;2023-05-02T05:42:08;102027.25;;;10.69;88.65
58473;BME280;44775;51.564;5.460;2023-05-02T05:44:34;102037.81;;;10.70;89.18
58473;BME280;44775;51.564;5.460;2023-05-02T05:46:59;102028.78;;;10.61;90.29
58473;BME280;44775;51.564;5.460;2023-05-02T05:49:24;102033.88;;;10.64;88.52
58473;BME280;44775;51.564;5.460;2023-05-02T05:51:49;102033.72;;;10.76;88.99
58473;BME280;44775;51.564;5.460;2023-05-02T05:54:15;102033.72;;;10.76;90.20
58473;BME280;44775;51.564;5.460;2023-05-02T05:56:40;102043.56;;;10.85;88.59
58473;BME280;44775;51.564;5.460;2023-05-02T05:59:06;102040.06;;;10.94;84.66
58473;BME280;44775;51.564;5.460;2023-05-02T06:01:31;102047.09;;;11.15;84.94
58473;BME280;44775;51.564;5.460;2023-05-02T06:03:56;102049.16;;;11.30;85.28
58473;BME280;44775;51.564;5.460;2023-05-02T06:06:22;102052.28;;;11.73;80.08
58473;BME280;44775;51.564;5.460;2023-05-02T06:08:48;102057.63;;;11.73;82.31
58473;BME280;44775;51.564;5.460;2023-05-02T06:11:13;102065.09;;;11.89;80.20
58473;BME280;44775;51.564;5.460;2023-05-02T06:13:38;102066.63;;;11.81;80.69
58473;BME280;44775;51.564;5.460;2023-05-02T06:16:04;102073.47;;;12.03;79.91
58473;BME280;44775;51.564;5.460;2023-05-02T06:18:29;102074.47;;;12.30;80.37
58473;BME280;44775;51.564;5.460;2023-05-02T06:20:54;102067.91;;;12.60;76.29
58473;BME280;44775;51.564;5.460;2023-05-02T06:23:19;102079.66;;;12.77;75.20
58473;BME280;44775;51.564;5.460;2023-05-02T06:25:45;102089.16;;;12.89;76.14
58473;BME280;44775;51.564;5.460;2023-05-02T06:28:10;102088.97;;;13.09;76.38
58473;BME280;44775;51.564;5.460;2023-05-02T06:30:35;102103.81;;;13.31;74.85
58473;BME280;44775;51.564;5.460;2023-05-02T06:33:02;102096.22;;;13.52;74.02
58473;BME280;44775;51.564;5.460;2023-05-02T06:35:28;102107.06;;;13.42;76.36
58473;BME280;44775;51.564;5.460;2023-05-02T06:37:53;102119.13;;;13.38;72.64
58473;BME280;44775;51.564;5.460;2023-05-02T06:40:18;102120.66;;;13.23;72.94
58473;BME280;44775;51.564;5.460;2023-05-02T06:42:43;102122.75;;;12.93;75.00
58473;BME280;44775;51.564;5.460;2023-05-02T06:45:08;102130.44;;;12.79;74.88
58473;BME280;44775;51.564;5.460;2023-05-02T06:47:34;102124.47;;;12.85;75.52
58473;BME280;44775;51.564;5.460;2023-05-02T06:49:59;102126.25;;;12.76;76.07
58473;BME280;44775;51.564;5.460;2023-05-02T06:52:24;102134.44;;;12.74;77.20
58473;BME280;44775;51.564;5.460;2023-05-02T06:54:49;102141.41;;;12.85;75.63
58473;BME280;44775;51.564;5.460;2023-05-02T06:57:15;102141.03;;;12.80;74.80
58473;BME280;44775;51.564;5.460;2023-05-02T06:59:40;102138.38;;;12.80;75.39
58473;BME280;44775;51.564;5.460;2023-05-02T07:02:05;102138.31;;;12.90;74.43
58473;BME280;44775;51.564;5.460;2023-05-02T07:04:30;102142.19;;;12.95;74.10
58473;BME280;44775;51.564;5.460;2023-05-02T07:06:56;102151.94;;;12.96;75.06
58473;BME280;44775;51.564;5.460;2023-05-02T07:09:21;102158.13;;;13.25;72.39
58473;BME280;44775;51.564;5.460;2023-05-02T07:11:46;102158.88;;;13.35;72.16
58473;BME280;44775;51.564;5.460;2023-05-02T07:14:11;102167.84;;;13.26;73.93
58473;BME280;44775;51.564;5.460;2023-05-02T07:16:37;102171.22;;;13.10;69.75
58473;BME280;44775;51.564;5.460;2023-05-02T07:19:02;102171.44;;;13.16;71.72
58473;BME280;44775;51.564;5.460;2023-05-02T07:21:28;102172.94;;;13.19;72.41
58473;BME280;44775;51.564;5.460;2023-05-02T07:23:53;102180.50;;;13.51;69.27
58473;BME280;44775;51.564;5.460;2023-05-02T07:26:21;102181.03;;;13.55;69.52
58473;BME280;44775;51.564;5.460;2023-05-02T07:28:47;102190.00;;;13.45;72.90
58473;BME280;44775;51.564;5.460;2023-05-02T07:31:12;102178.91;;;13.40;70.99
58473;BME280;44775;51.564;5.460;2023-05-02T07:33:37;102189.97;;;13.63;67.92
58473;BME280;44775;51.564;5.460;2023-05-02T07:36:03;102196.59;;;13.95;64.14
58473;BME280;44775;51.564;5.460;2023-05-02T07:38:28;102193.00;;;14.12;66.05
58473;BME280;44775;51.564;5.460;2023-05-02T07:40:56;102196.22;;;14.16;67.56
58473;BME280;44775;51.564;5.460;2023-05-02T07:43:21;102195.47;;;14.32;65.67
58473;BME280;44775;51.564;5.460;2023-05-02T07:45:46;102207.69;;;14.26;69.30
58473;BME280;44775;51.564;5.460;2023-05-02T07:48:12;102208.13;;;14.13;68.69
58473;BME280;44775;51.564;5.460;2023-05-02T07:50:37;102209.19;;;13.94;69.60
58473;BME280;44775;51.564;5.460;2023-05-02T07:53:02;102216.00;;;13.81;69.68
58473;BME280;44775;51.564;5.460;2023-05-02T07:55:27;102213.03;;;13.48;68.71
58473;BME280;44775;51.564;5.460;2023-05-02T07:57:54;102221.38;;;13.45;68.09
58473;BME280;44775;51.564;5.460;2023-05-02T08:00:19;102219.78;;;13.34;68.46
58473;BME280;44775;51.564;5.460;2023-05-02T08:02:45;102222.81;;;13.21;65.72
58473;BME280;44775;51.564;5.460;2023-05-02T08:05:10;102222.69;;;12.95;68.47
58473;BME280;44775;51.564;5.460;2023-05-02T08:07:35;102219.50;;;13.10;71.15
58473;BME280;44775;51.564;5.460;2023-05-02T08:10:00;102220.81;;;13.23;65.15
58473;BME280;44775;51.564;5.460;2023-05-02T08:12:26;102229.28;;;13.29;68.64
58473;BME280;44775;51.564;5.460;2023-05-02T08:14:51;102235.50;;;13.29;71.03
58473;BME280;44775;51.564;5.460;2023-05-02T08:17:16;102236.06;;;13.51;67.53
58473;BME280;44775;51.564;5.460;2023-05-02T08:19:41;102234.34;;;13.67;69.22
58473;BME280;44775;51.564;5.460;2023-05-02T08:22:06;102243.75;;;13.89;68.07
58473;BME280;44775;51.564;5.460;2023-05-02T08:24:32;102246.16;;;14.18;66.56
58473;BME280;44775;51.564;5.460;2023-05-02T08:26:57;102259.94;;;14.24;63.15
58473;BME280;44775;51.564;5.460;2023-05-02T08:29:22;102257.03;;;14.17;63.21
58473;BME280;44775;51.564;5.460;2023-05-02T08:31:47;102254.78;;;14.30;64.57
58473;BME280;44775;51.564;5.460;2023-05-02T08:34:13;102257.16;;;14.33;56.23
58473;BME280;44775;51.564;5.460;2023-05-02T08:36:38;102256.69;;;14.38;63.09
58473;BME280;44775;51.564;5.460;2023-05-02T08:39:03;102269.41;;;14.54;61.92
58473;BME280;44775;51.564;5.460;2023-05-02T08:41:29;102272.28;;;14.60;54.81
58473;BME280;44775;51.564;5.460;2023-05-02T08:43:55;102266.97;;;14.43;58.65
58473;BME280;44775;51.564;5.460;2023-05-02T08:46:20;102264.75;;;14.38;61.80
58473;BME280;44775;51.564;5.460;2023-05-02T08:48:46;102273.13;;;14.61;63.38
58473;BME280;44775;51.564;5.460;2023-05-02T08:51:16;102274.03;;;15.12;57.19
58473;BME280;44775;51.564;5.460;2023-05-02T08:53:42;102268.16;;;15.25;55.23
58473;BME280;44775;51.564;5.460;2023-05-02T08:56:07;102273.59;;;15.41;52.57
58473;BME280;44775;51.564;5.460;2023-05-02T08:58:34;102276.31;;;15.57;53.70
58473;BME280;44775;51.564;5.460;2023-05-02T09:00:59;102278.72;;;15.77;54.12
58473;BME280;44775;51.564;5.460;2023-05-02T09:03:32;102282.25;;;15.86;60.15
58473;BME280;44775;51.564;5.460;2023-05-02T09:06:08;102289.31;;;16.03;54.47
58473;BME280;44775;51.564;5.460;2023-05-02T09:08:34;102291.19;;;16.11;49.15
58473;BME280;44775;51.564;5.460;2023-05-02T09:11:00;102293.34;;;16.15;50.04
58473;BME280;44775;51.564;5.460;2023-05-02T09:15:58;102298.66;;;16.64;53.63
58473;BME280;44775;51.564;5.460;2023-05-02T09:18:25;102303.53;;;16.69;47.65
58473;BME280;44775;51.564;5.460;2023-05-02T09:20:51;102299.91;;;16.29;48.37
58473;BME280;44775;51.564;5.460;2023-05-02T09:23:16;102303.44;;;15.64;54.46
58473;BME280;44775;51.564;5.460;2023-05-02T09:25:41;102319.06;;;15.44;56.09
58473;BME280;44775;51.564;5.460;2023-05-02T09:28:06;102316.91;;;15.56;53.71
58473;BME280;44775;51.564;5.460;2023-05-02T09:30:31;102316.72;;;15.57;53.19
58473;BME280;44775;51.564;5.460;2023-05-02T09:32:57;102321.94;;;15.59;53.24
58473;BME280;44775;51.564;5.460;2023-05-02T09:35:23;102315.72;;;15.58;58.32
58473;BME280;44775;51.564;5.460;2023-05-02T09:37:57;102317.13;;;15.95;52.31
58473;BME280;44775;51.564;5.460;2023-05-02T09:40:22;102316.63;;;16.08;52.53
58473;BME280;44775;51.564;5.460;2023-05-02T09:42:48;102321.50;;;16.29;53.20
58473;BME280;44775;51.564;5.460;2023-05-02T09:45:23;102334.09;;;16.61;48.83
58473;BME280;44775;51.564;5.460;2023-05-02T09:47:49;102331.94;;;16.48;56.73
58473;BME280;44775;51.564;5.460;2023-05-02T09:53:02;102333.56;;;16.74;53.22
58473;BME280;44775;51.564;5.460;2023-05-02T09:55:27;102346.03;;;16.83;55.67
58473;BME280;44775;51.564;5.460;2023-05-02T09:57:52;102349.41;;;16.85;53.38
58473;BME280;44775;51.564;5.460;2023-05-02T10:00:17;102349.84;;;17.05;46.92
58473;BME280;44775;51.564;5.460;2023-05-02T10:02:44;102347.91;;;16.91;54.91
58473;BME280;44775;51.564;5.460;2023-05-02T10:05:11;102350.63;;;17.22;46.81
58473;BME280;44775;51.564;5.460;2023-05-02T10:07:37;102343.84;;;17.57;50.90
58473;BME280;44775;51.564;5.460;2023-05-02T10:10:03;102353.75;;;17.65;46.86
58473;BME280;44775;51.564;5.460;2023-05-02T10:12:30;102358.94;;;17.83;46.11
58473;BME280;44775;51.564;5.460;2023-05-02T10:14:58;102343.81;;;17.34;44.67
58473;BME280;44775;51.564;5.460;2023-05-02T10:17:28;102354.59;;;17.03;45.60
58473;BME280;44775;51.564;5.460;2023-05-02T10:22:19;102359.28;;;16.37;46.80
58473;BME280;44775;51.564;5.460;2023-05-02T10:24:47;102355.22;;;16.25;48.11
58473;BME280;44775;51.564;5.460;2023-05-02T10:27:13;102356.06;;;16.01;51.99
58473;BME280;44775;51.564;5.460;2023-05-02T10:29:38;102349.34;;;16.13;55.69
58473;BME280;44775;51.564;5.460;2023-05-02T10:32:05;102357.72;;;16.26;49.19
58473;BME280;44775;51.564;5.460;2023-05-02T10:34:31;102363.63;;;16.55;46.72
58473;BME280;44775;51.564;5.460;2023-05-02T10:36:56;102365.94;;;16.90;43.92
58473;BME280;44775;51.564;5.460;2023-05-02T10:39:25;102359.47;;;17.08;45.91
58473;BME280;44775;51.564;5.460;2023-05-02T10:41:51;102355.25;;;17.05;45.97
58473;BME280;44775;51.564;5.460;2023-05-02T10:44:39;102361.59;;;16.81;52.15
58473;BME280;44775;51.564;5.460;2023-05-02T10:54:51;102360.34;;;18.69;45.83
58473;BME280;44775;51.564;5.460;2023-05-02T10:57:53;102362.06;;;18.70;45.41
58473;BME280;44775;51.564;5.460;2023-05-02T11:00:25;102360.25;;;18.10;47.02
58473;BME280;44775;51.564;5.460;2023-05-02T11:02:50;102364.59;;;17.96;43.98
58473;BME280;44775;51.564;5.460;2023-05-02T11:05:15;102371.94;;;18.25;47.04
58473;BME280;44775;51.564;5.460;2023-05-02T11:07:41;102366.47;;;18.86;47.41
58473;BME280;44775;51.564;5.460;2023-05-02T11:12:44;102386.94;;;19.18;39.71
58473;BME280;44775;51.564;5.460;2023-05-02T11:15:13;102381.50;;;18.74;40.33
58473;BME280;44775;51.564;5.460;2023-05-02T11:17:57;102377.78;;;18.14;41.83
58473;BME280;44775;51.564;5.460;2023-05-02T11:20:22;102379.44;;;17.69;37.62
58473;BME280;44775;51.564;5.460;2023-05-02T11:22:48;102382.84;;;17.63;39.08
58473;BME280;44775;51.564;5.460;2023-05-02T11:25:35;102380.34;;;17.92;44.91
58473;BME280;44775;51.564;5.460;2023-05-02T11:27:59;102380.31;;;17.61;41.70
58473;BME280;44775;51.564;5.460;2023-05-02T11:30:43;102385.00;;;17.36;40.86
58473;BME280;44775;51.564;5.460;2023-05-02T11:33:10;102390.81;;;17.17;41.21
58473;BME280;44775;51.564;5.460;2023-05-02T11:35:35;102372.34;;;17.99;42.93
58473;BME280;44775;51.564;5.460;2023-05-02T11:38:01;102381.69;;;18.72;40.86
58473;BME280;44775;51.564;5.460;2023-05-02T11:40:27;102381.50;;;18.74;38.88
58473;BME280;44775;51.564;5.460;2023-05-02T11:42:53;102370.69;;;18.36;42.47
58473;BME280;44775;51.564;5.460;2023-05-02T11:45:18;102374.81;;;18.47;40.93
58473;BME280;44775;51.564;5.460;2023-05-02T11:47:45;102385.28;;;18.50;39.79
58473;BME280;44775;51.564;5.460;2023-05-02T11:50:11;102385.81;;;18.98;42.42
58473;BME280;44775;51.564;5.460;2023-05-02T11:52:37;102385.50;;;20.10;40.02
58473;BME280;44775;51.564;5.460;2023-05-02T11:55:04;102391.34;;;21.26;35.41
58473;BME280;44775;51.564;5.460;2023-05-02T11:57:31;102395.59;;;21.35;34.11
58473;BME280;44775;51.564;5.460;2023-05-02T11:59:57;102393.56;;;20.74;36.06
58473;BME280;44775;51.564;5.460;2023-05-02T12:05:26;102398.19;;;19.37;39.99
58473;BME280;44775;51.564;5.460;2023-05-02T12:07:52;102390.34;;;19.27;38.20
58473;BME280;44775;51.564;5.460;2023-05-02T12:10:17;102406.34;;;19.88;35.17
58473;BME280;44775;51.564;5.460;2023-05-02T12:12:43;102414.53;;;19.94;38.00
58473;BME280;44775;51.564;5.460;2023-05-02T12:15:09;102404.84;;;20.28;37.11
58473;BME280;44775;51.564;5.460;2023-05-02T12:17:46;102411.09;;;20.71;32.58
58473;BME280;44775;51.564;5.460;2023-05-02T12:20:13;102412.44;;;20.33;33.34
58473;BME280;44775;51.564;5.460;2023-05-02T12:22:39;102410.63;;;19.97;38.15
58473;BME280;44775;51.564;5.460;2023-05-02T12:25:05;102413.78;;;19.79;36.67
58473;BME280;44775;51.564;5.460;2023-05-02T12:27:30;102420.50;;;19.83;34.79
58473;BME280;44775;51.564;5.460;2023-05-02T12:29:59;102421.28;;;19.98;38.01
58473;BME280;44775;51.564;5.460;2023-05-02T12:32:28;102419.34;;;20.57;35.31
58473;BME280;44775;51.564;5.460;2023-05-02T12:34:54;102426.38;;;21.07;33.55
58473;BME280;44775;51.564;5.460;2023-05-02T12:37:23;102425.88;;;20.90;36.94
58473;BME280;44775;51.564;5.460;2023-05-02T12:39:49;102432.13;;;20.91;33.42
58473;BME280;44775;51.564;5.460;2023-05-02T12:42:15;102438.34;;;20.85;34.40
58473;BME280;44775;51.564;5.460;2023-05-02T12:44:41;102431.81;;;20.72;37.83
58473;BME280;44775;51.564;5.460;2023-05-02T12:47:08;102435.84;;;20.12;44.63
58473;BME280;44775;51.564;5.460;2023-05-02T12:52:14;102452.97;;;19.47;34.93
58473;BME280;44775;51.564;5.460;2023-05-02T12:54:39;102442.47;;;18.70;37.38
58473;BME280;44775;51.564;5.460;2023-05-02T12:57:04;102439.44;;;18.64;41.12
58473;BME280;44775;51.564;5.460;2023-05-02T12:59:30;102442.16;;;19.32;39.15
58473;BME280;44775;51.564;5.460;2023-05-02T13:01:56;102448.75;;;19.59;43.57
58473;BME280;44775;51.564;5.460;2023-05-02T13:04:21;102444.59;;;19.93;40.89
58473;BME280;44775;51.564;5.460;2023-05-02T13:06:57;102447.28;;;20.79;39.05
58473;BME280;44775;51.564;5.460;2023-05-02T13:09:22;102441.25;;;21.46;34.80
58473;BME280;44775;51.564;5.460;2023-05-02T13:11:47;102448.56;;;22.07;33.67
58473;BME280;44775;51.564;5.460;2023-05-02T13:14:13;102441.09;;;22.15;34.42
58473;BME280;44775;51.564;5.460;2023-05-02T13:16:38;102455.19;;;21.71;32.14
58473;BME280;44775;51.564;5.460;2023-05-02T13:19:03;102449.28;;;21.26;35.90
58473;BME280;44775;51.564;5.460;2023-05-02T13:21:29;102448.13;;;21.07;35.04
58473;BME280;44775;51.564;5.460;2023-05-02T13:23:55;102451.38;;;21.24;34.47
58473;BME280;44775;51.564;5.460;2023-05-02T13:26:20;102445.44;;;21.49;34.05
58473;BME280;44775;51.564;5.460;2023-05-02T13:28:46;102447.19;;;21.63;35.88
58473;BME280;44775;51.564;5.460;2023-05-02T13:31:11;102438.72;;;22.06;32.00
58473;BME280;44775;51.564;5.460;2023-05-02T13:33:36;102448.03;;;22.45;30.26